Time;durP1;ratioP1;P1;durP2;ratioP2;P2;SDS_P1;SDS_P2;PMS_P1;PMS_P2;Temp;Humidity;BMP_temperature;BMP_pressure;BME280_temperature;BME280_humidity;BME280_pressure;Samples;Min_cycle;Max_cycle;Signal;HPM_P1;HPM_P2
2022/01/09 00:00:24;;;;;;;79.95;18.77;;;;;;;6.40;100.00;99886.56;5070695;28;20028;-74
2022/01/09 00:02:50;;;;;;;86.63;17.85;;;;;;;5.92;100.00;99808.41;5071074;28;20486;-74
2022/01/09 00:05:16;;;;;;;87.80;17.00;;;;;;;6.24;100.00;99872.19;5071066;28;20116;-74
2022/01/09 00:07:42;;;;;;;62.92;13.18;;;;;;;6.17;100.00;99875.28;5071026;28;20440;-74
2022/01/09 00:10:09;;;;;;;75.82;14.73;;;;;;;6.10;100.00;99881.81;5071357;28;20032;-74
2022/01/09 00:12:34;;;;;;;54.67;12.90;;;;;;;5.85;100.00;99851.63;5070919;28;20123;-74
2022/01/09 00:15:00;;;;;;;48.05;11.60;;;;;;;5.97;100.00;99873.53;5071155;28;20162;-74
2022/01/09 00:17:26;;;;;;;85.38;12.90;;;;;;;5.97;100.00;99868.41;5070984;28;20043;-74
2022/01/09 00:19:51;;;;;;;79.30;13.30;;;;;;;5.83;100.00;99829.38;5070957;28;20024;-74
2022/01/09 00:22:21;;;;;;;82.72;13.27;;;;;;;5.78;100.00;99824.81;5070970;28;20029;-74
2022/01/09 00:24:46;;;;;;;;;;;;;;;6.04;100.00;99858.47;5071360;28;20032;-79
2022/01/09 00:27:12;;;;;;;70.75;12.38;;;;;;;5.99;100.00;99856.59;5070795;28;19908;-74
2022/01/09 00:29:37;;;;;;;77.53;13.70;;;;;;;6.01;100.00;99850.63;5083859;28;20047;-74
2022/01/09 00:32:03;;;;;;;69.00;13.57;;;;;;;5.97;100.00;99872.69;5090944;28;20020;-73
2022/01/09 00:34:28;;;;;;;72.80;14.18;;;;;;;6.01;100.00;99877.16;5091009;28;20389;-73
2022/01/09 00:36:54;;;;;;;58.33;14.48;;;;;;;6.11;100.00;99860.50;5091069;28;20028;-73
2022/01/09 00:39:19;;;;;;;57.92;13.80;;;;;;;6.14;100.00;99863.19;5087624;28;20028;-70
2022/01/09 00:41:44;;;;;;;48.25;15.75;;;;;;;6.13;100.00;99859.78;5075550;28;20797;-77
2022/01/09 00:44:11;;;;;;;56.20;15.05;;;;;;;6.11;100.00;99855.38;5070167;28;20103;-74
2022/01/09 00:46:36;;;;;;;55.40;14.77;;;;;;;6.14;100.00;99869.22;5052561;28;20029;-74
2022/01/09 00:49:03;;;;;;;52.40;15.15;;;;;;;6.19;100.00;99866.84;5070682;28;20093;-74
2022/01/09 00:51:30;;;;;;;43.60;15.40;;;;;;;6.03;100.00;99820.84;5070543;28;20033;-74
2022/01/09 00:53:56;;;;;;;72.28;17.90;;;;;;;6.25;100.00;99856.88;5070091;28;20035;-74
2022/01/09 00:56:21;;;;;;;59.47;15.65;;;;;;;5.84;100.00;99773.88;5070088;28;20479;-72
2022/01/09 00:58:47;;;;;;;43.17;16.88;;;;;;;6.34;100.00;99858.09;5070495;28;20406;-74
2022/01/09 01:01:12;;;;;;;43.88;15.13;;;;;;;6.13;100.00;99817.88;5077144;28;20032;-73
2022/01/09 01:03:38;;;;;;;40.38;14.48;;;;;;;6.20;100.00;99863.47;5072654;28;20031;-73
2022/01/09 01:06:03;;;;;;;39.05;16.10;;;;;;;6.17;100.00;99858.22;5090376;28;20032;-74
2022/01/09 01:08:29;;;;;;;40.22;16.38;;;;;;;5.96;100.00;99811.97;5090276;28;20035;-73
2022/01/09 01:10:55;;;;;;;38.33;15.27;;;;;;;6.05;100.00;99824.38;5090006;28;20090;-73
2022/01/09 01:13:20;;;;;;;36.03;14.80;;;;;;;6.14;100.00;99852.94;5091188;28;20070;-73
2022/01/09 01:15:46;;;;;;;42.53;16.73;;;;;;;6.17;100.00;99857.34;5094435;28;20107;-70
2022/01/09 01:18:11;;;;;;;35.67;14.63;;;;;;;6.21;100.00;99859.25;5094220;28;20080;-70
2022/01/09 01:20:37;;;;;;;32.00;16.08;;;;;;;6.25;100.00;99858.56;5093542;28;20071;-72
2022/01/09 01:23:02;;;;;;;31.27;16.38;;;;;;;6.21;100.00;99852.41;5093241;28;20116;-70
2022/01/09 01:25:28;;;;;;;35.15;16.02;;;;;;;6.18;100.00;99865.13;5092871;28;20513;-72
2022/01/09 01:27:54;;;;;;;30.73;16.15;;;;;;;6.12;100.00;99852.03;5082425;28;20085;-69
2022/01/09 01:30:19;;;;;;;29.73;16.15;;;;;;;6.11;100.00;99847.69;5073023;28;20024;-70
2022/01/09 01:32:45;;;;;;;27.40;15.68;;;;;;;6.14;100.00;99850.38;5072727;28;20028;-69
2022/01/09 01:35:12;;;;;;;33.08;15.63;;;;;;;6.07;100.00;99812.47;5073034;28;20028;-69
2022/01/09 01:37:41;;;;;;;30.73;14.98;;;;;;;6.20;100.00;99850.66;5073087;28;20032;-70
2022/01/09 01:40:09;;;;;;;28.88;13.40;;;;;;;6.18;100.00;99843.72;5072626;28;20032;-71
2022/01/09 01:42:36;;;;;;;28.13;14.38;;;;;;;6.04;100.00;99825.16;5072706;28;20036;-69
2022/01/09 01:45:02;;;;;;;27.85;13.80;;;;;;;6.12;100.00;99846.91;5072711;28;20044;-69
2022/01/09 01:47:28;;;;;;;32.05;14.93;;;;;;;5.89;100.00;99800.56;5072802;28;20048;-69
2022/01/09 01:49:53;;;;;;;28.58;13.57;;;;;;;6.13;100.00;99840.94;5072137;28;20074;-69
2022/01/09 01:52:29;;;;;;;31.15;15.27;;;;;;;6.08;100.00;99837.28;5072378;28;20032;-70
2022/01/09 01:54:55;;;;;;;33.85;14.85;;;;;;;6.15;100.00;99826.50;5072579;28;20097;-70
2022/01/09 01:57:20;;;;;;;30.85;14.63;;;;;;;6.01;100.00;99781.44;5072485;28;20115;-70
2022/01/09 01:59:46;;;;;;;32.10;16.52;;;;;;;6.23;100.00;99799.53;5072072;28;20051;-72
2022/01/09 02:02:11;;;;;;;27.02;14.90;;;;;;;6.20;100.00;99803.66;5071986;28;20024;-69
2022/01/09 02:04:37;;;;;;;24.95;13.68;;;;;;;6.06;100.00;99788.53;5072098;28;20033;-71
2022/01/09 02:07:03;;;;;;;29.33;14.13;;;;;;;6.13;100.00;99782.00;5071766;28;20031;-69
2022/01/09 02:09:29;;;;;;;29.98;14.98;;;;;;;6.23;100.00;99781.59;5071945;28;20039;-69
2022/01/09 02:11:55;;;;;;;23.17;13.40;;;;;;;6.34;100.00;99783.75;5072212;28;20028;-70
2022/01/09 02:14:21;;;;;;;24.67;12.77;;;;;;;6.14;100.00;99743.63;5072006;28;20029;-71
2022/01/09 02:16:48;;;;;;;26.80;13.35;;;;;;;5.97;100.00;99698.44;5071904;28;20126;-70
2022/01/09 02:19:15;;;;;;;24.75;12.73;;;;;;;6.48;100.00;99783.53;5072157;28;20025;-70
2022/01/09 02:21:45;;;;;;;23.35;12.75;;;;;;;6.51;100.00;99780.22;5072121;28;20035;-70
2022/01/09 02:24:11;;;;;;;19.77;12.30;;;;;;;6.59;100.00;99773.72;5071522;28;20024;-70
2022/01/09 02:26:37;;;;;;;22.52;12.15;;;;;;;6.62;100.00;99783.22;5069763;28;20029;-71
2022/01/09 02:29:05;;;;;;;19.77;11.88;;;;;;;6.64;100.00;99773.88;5070605;28;20017;-70
2022/01/09 02:31:31;;;;;;;24.25;12.32;;;;;;;6.69;100.00;99768.97;5073991;28;20031;-70
2022/01/09 02:33:57;;;;;;;22.80;13.73;;;;;;;6.55;100.00;99735.06;5072274;28;20024;-70
2022/01/09 02:36:22;;;;;;;25.15;14.02;;;;;;;6.76;100.00;99756.44;5071197;28;20116;-73
2022/01/09 02:38:48;;;;;;;33.92;21.58;;;;;;;6.86;100.00;99762.81;5071705;28;20027;-73
2022/01/09 02:41:14;;;;;;;33.50;22.20;;;;;;;6.70;100.00;99725.41;5071648;28;20113;-72
2022/01/09 02:43:39;;;;;;;27.60;19.15;;;;;;;6.95;100.00;99762.31;5073440;28;20494;-73
2022/01/09 02:46:30;;;;;;;23.80;16.13;;;;;;;6.95;100.00;99768.34;5071762;28;20055;-70
2022/01/09 02:48:57;;;;;;;19.08;13.60;;;;;;;6.98;100.00;99762.47;5071171;28;20486;-70
2022/01/09 02:51:24;;;;;;;21.08;14.13;;;;;;;6.99;100.00;99765.88;5071298;28;20028;-72
2022/01/09 02:53:56;;;;;;;22.50;12.93;;;;;;;6.68;100.00;99726.16;5071028;28;20055;-72
2022/01/09 02:56:22;;;;;;;20.73;12.30;;;;;;;6.72;100.00;99752.00;5071208;28;20020;-72
2022/01/09 02:58:47;;;;;;;20.77;12.02;;;;;;;6.47;100.00;99752.69;5071157;28;20024;-71
2022/01/09 03:01:12;;;;;;;22.08;13.10;;;;;;;6.37;100.00;99751.44;5070957;28;20021;-72
2022/01/09 03:03:39;;;;;;;24.90;13.80;;;;;;;6.41;100.00;99744.75;5071274;28;20476;-73
2022/01/09 03:06:04;;;;;;;24.25;13.57;;;;;;;6.37;100.00;99735.16;5071216;28;20040;-69
2022/01/09 03:08:30;;;;;;;23.13;13.32;;;;;;;6.50;100.00;99732.28;5053334;28;20034;-72
2022/01/09 03:10:55;;;;;;;24.63;12.95;;;;;;;6.66;100.00;99743.19;5070901;28;20074;-72
2022/01/09 03:13:21;;;;;;;22.35;14.05;;;;;;;6.63;100.00;99733.69;5070563;28;20032;-70
2022/01/09 03:15:47;;;;;;;20.00;12.00;;;;;;;6.66;100.00;99725.25;5070965;28;20021;-70
2022/01/09 03:18:12;;;;;;;21.70;13.73;;;;;;;6.81;100.00;99738.69;5071675;28;20025;-70
2022/01/09 03:20:39;;;;;;;19.38;12.25;;;;;;;6.71;100.00;99732.28;5071353;28;20031;-74
2022/01/09 03:23:05;;;;;;;22.10;13.77;;;;;;;6.59;100.00;99721.53;5073393;28;20032;-74
2022/01/09 03:25:30;;;;;;;22.30;13.68;;;;;;;6.34;100.00;99709.41;5071542;28;20052;-75
2022/01/09 03:27:57;;;;;;;19.90;12.65;;;;;;;6.42;100.00;99718.28;5071348;28;20063;-73
2022/01/09 03:30:24;;;;;;;25.35;13.73;;;;;;;6.47;100.00;99709.09;5070712;28;20029;-73
2022/01/09 03:32:51;;;;;;;21.85;13.23;;;;;;;6.47;100.00;99715.09;5069778;28;20032;-73
2022/01/09 03:35:19;;;;;;;22.63;13.15;;;;;;;6.37;100.00;99691.56;5071087;28;20097;-73
2022/01/09 03:37:46;;;;;;;26.23;15.45;;;;;;;6.42;100.00;99700.34;5070806;28;20025;-73
2022/01/09 03:40:15;;;;;;;28.17;17.35;;;;;;;6.69;100.00;99740.75;5052866;28;20028;-73
2022/01/09 03:42:41;;;;;;;25.55;15.60;;;;;;;6.70;100.00;99738.22;5069582;28;20048;-73
2022/01/09 03:45:07;;;;;;;23.45;13.27;;;;;;;6.69;100.00;99739.06;5070501;28;20075;-73
2022/01/09 03:47:35;;;;;;;24.85;14.00;;;;;;;6.67;100.00;99732.09;5071122;28;20020;-73
2022/01/09 03:50:04;;;;;;;23.80;13.43;;;;;;;6.70;100.00;99738.22;5071026;28;20492;-73
2022/01/09 03:52:29;;;;;;;22.55;13.32;;;;;;;6.72;100.00;99735.75;5070705;28;20035;-73
2022/01/09 03:54:55;;;;;;;24.55;12.57;;;;;;;6.72;100.00;99734.06;5071038;28;20422;-73
2022/01/09 03:57:21;;;;;;;23.77;13.07;;;;;;;6.64;100.00;99733.75;5070677;28;20029;-73
2022/01/09 03:59:47;;;;;;;25.65;13.98;;;;;;;6.65;100.00;99742.31;5070667;28;20102;-74
2022/01/09 04:02:12;;;;;;;27.77;13.95;;;;;;;6.63;100.00;99737.13;5070761;28;20060;-74
2022/01/09 04:04:38;;;;;;;30.25;15.38;;;;;;;6.42;100.00;99702.91;5071148;28;20032;-73
2022/01/09 04:07:04;;;;;;;33.05;16.45;;;;;;;6.63;100.00;99734.56;5070276;28;20112;-73
2022/01/09 04:09:48;;;;;;;35.42;17.63;;;;;;;6.58;100.00;99718.09;5070133;28;20032;-73
2022/01/09 04:12:17;;;;;;;39.42;17.65;;;;;;;6.42;100.00;99721.72;5069666;28;20102;-73
2022/01/09 04:14:48;;;;;;;32.20;16.95;;;;;;;6.42;100.00;99731.97;5068684;28;20481;-73
2022/01/09 04:17:24;;;;;;;38.22;17.98;;;;;;;6.39;100.00;99716.47;5069595;28;20092;-73
2022/01/09 04:19:49;;;;;;;46.30;19.27;;;;;;;6.24;100.00;99691.09;5069958;28;20115;-73
2022/01/09 04:22:15;;;;;;;49.67;19.65;;;;;;;6.45;100.00;99723.53;5069810;28;20162;-73
2022/01/09 04:24:40;;;;;;;45.22;19.02;;;;;;;6.56;100.00;99729.97;5069771;28;20485;-73
2022/01/09 04:27:06;;;;;;;40.05;18.98;;;;;;;6.31;100.00;99707.59;5051787;28;20032;-73
2022/01/09 04:29:32;;;;;;;39.80;19.73;;;;;;;6.32;100.00;99728.16;5070013;28;20147;-74
2022/01/09 04:31:57;;;;;;;40.42;19.95;;;;;;;6.28;100.00;99721.16;5070623;28;20028;-73
2022/01/09 04:34:23;;;;;;;35.25;17.85;;;;;;;6.32;100.00;99722.16;5070455;28;20704;-73
2022/01/09 04:36:50;;;;;;;39.35;19.98;;;;;;;6.12;100.00;99717.06;5052561;28;20036;-73
2022/01/09 04:39:15;;;;;;;42.08;20.27;;;;;;;6.09;100.00;99723.75;5069895;28;20025;-73
2022/01/09 04:41:40;;;;;;;38.17;18.85;;;;;;;6.07;100.00;99717.66;5070428;28;20032;-73
2022/01/09 04:44:06;;;;;;;35.40;17.65;;;;;;;6.11;100.00;99723.00;5069918;28;20024;-74
2022/01/09 04:46:42;;;;;;;32.75;18.70;;;;;;;6.14;100.00;99718.00;5070007;28;20053;-74
2022/01/09 04:49:07;;;;;;;33.35;18.13;;;;;;;6.11;100.00;99714.44;5071930;28;20081;-75
2022/01/09 04:51:33;;;;;;;37.60;19.60;;;;;;;6.03;100.00;99706.44;5074635;28;20530;-74
2022/01/09 04:53:58;;;;;;;32.20;17.60;;;;;;;6.08;100.00;99720.31;5073885;28;20460;-74
2022/01/09 04:56:23;;;;;;;34.50;18.70;;;;;;;6.13;100.00;99723.03;5075761;28;20033;-74
2022/01/09 04:58:49;;;;;;;36.67;19.73;;;;;;;6.06;100.00;99698.00;5091821;28;20024;-74
2022/01/09 05:01:14;;;;;;;31.83;19.13;;;;;;;6.19;100.00;99694.25;5087939;28;20020;-75
2022/01/09 05:03:40;;;;;;;37.95;18.17;;;;;;;6.02;100.00;99657.66;5090751;28;20039;-73
2022/01/09 05:06:05;;;;;;;35.17;19.42;;;;;;;5.83;100.00;99644.03;5080310;28;20469;-73
2022/01/09 05:08:31;;;;;;;47.70;20.35;;;;;;;6.07;100.00;99697.16;5076026;28;20404;-72
2022/01/09 05:10:56;;;;;;;48.95;21.05;;;;;;;5.96;100.00;99664.25;5078738;28;20097;-71
2022/01/09 05:13:22;;;;;;;46.38;20.73;;;;;;;5.96;100.00;99650.56;5074003;28;20115;-70
2022/01/09 05:15:48;;;;;;;45.28;22.30;;;;;;;6.29;100.00;99687.03;5073770;28;20555;-71
2022/01/09 05:18:14;;;;;;;46.95;21.27;;;;;;;6.32;100.00;99676.03;5073590;28;20079;-73
2022/01/09 05:20:44;;;;;;;46.03;20.42;;;;;;;6.00;100.00;99634.53;5073513;28;20090;-73
2022/01/09 05:23:10;;;;;;;50.58;21.58;;;;;;;5.95;100.00;99646.25;5073212;28;20086;-72
2022/01/09 05:25:35;;;;;;;52.35;21.67;;;;;;;5.93;100.00;99641.06;5055918;28;20083;-73
2022/01/09 05:28:01;;;;;;;53.63;23.70;;;;;;;6.09;100.00;99668.25;5074000;28;20024;-73
2022/01/09 05:30:27;;;;;;;56.47;23.05;;;;;;;6.08;100.00;99676.75;5073913;28;20036;-72
2022/01/09 05:32:52;;;;;;;56.88;21.45;;;;;;;6.15;100.00;99688.13;5093479;28;20086;-72
2022/01/09 05:35:17;;;;;;;55.25;21.38;;;;;;;6.17;100.00;99689.06;5093614;28;20032;-73
2022/01/09 05:37:43;;;;;;;49.50;20.58;;;;;;;6.22;100.00;99689.25;5093694;28;20024;-73
2022/01/09 05:40:09;;;;;;;54.75;23.58;;;;;;;6.16;100.00;99684.75;5094076;28;20032;-73
2022/01/09 05:42:35;;;;;;;58.85;23.05;;;;;;;5.94;100.00;99654.75;5050984;28;20462;-74
2022/01/09 05:45:02;;;;;;;75.70;38.50;;;;;;;5.89;100.00;99648.56;5050702;28;20049;-73
2022/01/09 05:47:27;;;;;;;69.00;35.22;;;;;;;6.12;100.00;99688.88;5050997;28;20410;-74
2022/01/09 05:49:53;;;;;;;63.47;34.35;;;;;;;6.17;100.00;99691.63;5050687;28;20036;-73
2022/01/09 05:52:18;;;;;;;52.53;25.92;;;;;;;6.12;100.00;99686.31;5050119;28;20057;-75
2022/01/09 05:54:44;;;;;;;45.80;21.00;;;;;;;6.31;100.00;99705.03;5050148;28;20079;-73
2022/01/09 05:57:09;;;;;;;44.55;20.65;;;;;;;6.29;100.00;99693.81;5050189;28;20037;-73
2022/01/09 05:59:35;;;;;;;42.63;21.27;;;;;;;6.37;100.00;99709.50;5049875;28;20505;-74
2022/01/09 06:02:00;;;;;;;48.33;23.63;;;;;;;6.35;100.00;99700.91;5049953;28;20041;-74
2022/01/09 06:04:26;;;;;;;79.28;40.33;;;;;;;6.40;100.00;99710.50;5050005;28;20098;-73
2022/01/09 06:06:54;;;;;;;60.65;31.67;;;;;;;6.36;100.00;99711.22;5050053;28;20036;-74
2022/01/09 06:09:20;;;;;;;67.60;42.90;;;;;;;6.35;100.00;99713.72;5030994;28;20106;-73
2022/01/09 06:11:45;;;;;;;51.90;29.98;;;;;;;6.36;100.00;99707.78;5050613;28;20064;-73
2022/01/09 06:14:11;;;;;;;50.00;28.92;;;;;;;6.19;100.00;99684.88;5067347;28;20040;-73
2022/01/09 06:16:37;;;;;;;48.47;26.13;;;;;;;6.36;100.00;99712.91;5071616;28;20047;-73
2022/01/09 06:19:03;;;;;;;48.10;24.05;;;;;;;6.38;100.00;99706.13;5072822;28;20170;-73
2022/01/09 06:21:28;;;;;;;58.53;33.60;;;;;;;6.36;100.00;99707.78;5072532;28;20111;-73
2022/01/09 06:23:54;;;;;;;75.32;43.05;;;;;;;6.44;100.00;99720.09;5072920;28;20091;-73
2022/01/09 06:26:20;;;;;;;61.97;33.30;;;;;;;6.45;100.00;99731.22;5072890;28;20106;-74
2022/01/09 06:28:46;;;;;;;62.78;35.40;;;;;;;6.46;100.00;99727.84;5072475;28;20033;-74
2022/01/09 06:31:11;;;;;;;57.75;33.15;;;;;;;6.49;100.00;99743.34;5072838;28;20032;-73
2022/01/09 06:33:37;;;;;;;54.50;31.30;;;;;;;6.48;100.00;99726.25;5072287;28;20033;-73
2022/01/09 06:36:03;;;;;;;49.65;23.90;;;;;;;6.46;100.00;99731.28;5072297;28;20098;-73
2022/01/09 06:38:28;;;;;;;52.42;24.77;;;;;;;6.41;100.00;99727.66;5072571;28;20033;-73
2022/01/09 06:40:53;;;;;;;52.28;25.10;;;;;;;6.10;100.00;99684.50;5072293;28;20027;-74
2022/01/09 06:43:19;;;;;;;63.83;25.23;;;;;;;6.41;100.00;99729.34;5072201;28;20028;-73
2022/01/09 06:45:44;;;;;;;51.47;24.55;;;;;;;6.40;100.00;99713.09;5070735;28;20053;-74
2022/01/09 06:48:10;;;;;;;48.83;26.20;;;;;;;6.44;100.00;99707.28;5072137;28;20508;-73
2022/01/09 06:50:35;;;;;;;43.95;22.20;;;;;;;6.35;100.00;99686.38;5071893;28;20485;-73
2022/01/09 06:53:01;;;;;;;40.25;20.92;;;;;;;6.55;100.00;99719.66;5072209;28;20028;-73
2022/01/09 06:55:26;;;;;;;41.65;21.33;;;;;;;6.43;100.00;99717.47;5072008;28;20035;-73
2022/01/09 06:57:53;;;;;;;43.88;20.85;;;;;;;6.31;100.00;99716.13;5072094;28;20413;-73
2022/01/09 07:00:19;;;;;;;43.65;22.15;;;;;;;6.33;100.00;99716.22;5071873;28;20029;-73
2022/01/09 07:02:45;;;;;;;35.83;18.73;;;;;;;6.33;100.00;99708.53;5072127;28;20046;-73
2022/01/09 07:05:12;;;;;;;41.30;20.58;;;;;;;6.28;100.00;99715.13;5071579;28;20057;-73
2022/01/09 07:07:37;;;;;;;44.75;20.52;;;;;;;5.78;100.00;99619.91;5071912;28;20111;-74
2022/01/09 07:10:04;;;;;;;52.13;27.27;;;;;;;6.43;100.00;99710.66;5071737;28;20565;-73
2022/01/09 07:12:29;;;;;;;50.38;26.08;;;;;;;6.44;100.00;99702.16;5071173;28;20090;-73
2022/01/09 07:14:55;;;;;;;39.58;20.08;;;;;;;6.51;100.00;99707.53;5071583;28;20036;-73
2022/01/09 07:17:20;;;;;;;43.55;22.70;;;;;;;6.59;100.00;99704.47;5071231;28;20032;-73
2022/01/09 07:19:45;;;;;;;41.97;21.45;;;;;;;6.64;100.00;99715.78;5071599;28;20028;-72
2022/01/09 07:22:11;;;;;;;45.97;23.20;;;;;;;6.69;100.00;99713.41;5071536;28;20035;-73
2022/01/09 07:24:36;;;;;;;44.13;21.42;;;;;;;6.65;100.00;99706.41;5071607;28;20033;-73
2022/01/09 07:27:02;;;;;;;41.22;18.40;;;;;;;6.52;100.00;99701.56;5071790;28;20031;-73
2022/01/09 07:29:27;;;;;;;49.80;19.20;;;;;;;6.54;100.00;99703.41;5071302;28;20020;-73
2022/01/09 07:31:53;;;;;;;53.80;20.42;;;;;;;6.46;100.00;99707.34;5071219;28;20033;-73
2022/01/09 07:34:20;;;;;;;56.00;21.55;;;;;;;6.42;100.00;99690.97;5070872;28;20093;-73
2022/01/09 07:36:45;;;;;;;42.70;22.17;;;;;;;6.52;100.00;99699.91;5053232;28;20119;-73
2022/01/09 07:39:11;;;;;;;44.05;19.80;;;;;;;6.48;100.00;99700.59;5071179;28;20032;-73
2022/01/09 07:41:37;;;;;;;44.92;20.30;;;;;;;6.15;100.00;99649.69;5070948;28;20514;-73
2022/01/09 07:44:03;;;;;;;52.88;20.13;;;;;;;6.32;100.00;99678.59;5069841;28;20021;-73
2022/01/09 07:46:28;;;;;;;61.88;23.13;;;;;;;6.11;100.00;99637.56;5070893;28;20114;-72
2022/01/09 07:48:54;;;;;;;67.32;24.65;;;;;;;6.26;100.00;99671.50;5070927;28;20039;-72
2022/01/09 07:51:20;;;;;;;60.50;21.50;;;;;;;6.14;100.00;99641.13;5071043;28;20033;-73
2022/01/09 07:53:45;;;;;;;64.80;21.92;;;;;;;6.26;100.00;99665.50;5071032;28;20040;-73
2022/01/09 07:56:11;;;;;;;67.40;21.77;;;;;;;6.22;100.00;99659.38;5071134;28;20059;-73
2022/01/09 07:58:36;;;;;;;66.80;24.33;;;;;;;6.30;100.00;99652.84;5071099;28;20390;-73
2022/01/09 08:01:01;;;;;;;72.15;30.67;;;;;;;6.29;100.00;99655.38;5036415;28;20096;-73
2022/01/09 08:03:27;;;;;;;71.28;26.35;;;;;;;6.17;100.00;99660.88;5070573;28;20525;-73
2022/01/09 08:05:52;;;;;;;94.75;31.02;;;;;;;6.19;100.00;99643.84;5053063;28;20478;-73
2022/01/09 08:08:18;;;;;;;98.18;33.88;;;;;;;6.29;100.00;99647.69;5071059;28;20657;-73
2022/01/09 08:10:44;;;;;;;84.38;26.30;;;;;;;6.02;100.00;99598.72;5070738;28;20032;-74
2022/01/09 08:13:10;;;;;;;85.50;29.55;;;;;;;6.28;100.00;99643.34;5070599;28;20040;-73
2022/01/09 08:15:35;;;;;;;92.60;25.90;;;;;;;6.32;100.00;99646.13;5070688;28;20040;-73
2022/01/09 08:18:01;;;;;;;99.38;27.50;;;;;;;6.25;100.00;99617.63;5070394;28;20478;-73
2022/01/09 08:20:26;;;;;;;86.75;26.23;;;;;;;6.40;100.00;99619.91;5070798;28;20051;-73
2022/01/09 08:22:52;;;;;;;81.90;28.05;;;;;;;6.66;100.00;99640.59;5051629;28;20414;-73
2022/01/09 08:25:19;;;;;;;81.22;25.35;;;;;;;6.51;100.00;99610.09;5070834;28;20102;-72
2022/01/09 08:27:46;;;;;;;89.28;30.67;;;;;;;6.77;100.00;99647.03;5070880;28;20105;-73
2022/01/09 08:30:12;;;;;;;79.75;31.27;;;;;;;6.85;100.00;99643.03;5071007;28;20031;-73
2022/01/09 08:32:39;;;;;;;74.20;29.33;;;;;;;6.50;100.00;99573.31;5070068;28;20032;-73
2022/01/09 08:35:06;;;;;;;75.05;28.20;;;;;;;6.99;100.00;99635.00;5070611;28;20032;-73
2022/01/09 08:37:32;;;;;;;63.40;24.58;;;;;;;7.01;100.00;99644.50;5070942;28;20032;-73
2022/01/09 08:39:58;;;;;;;64.82;23.88;;;;;;;6.97;100.00;99642.66;5070674;28;20032;-73
2022/01/09 08:42:23;;;;;;;61.22;24.77;;;;;;;7.01;100.00;99633.38;5070443;28;20060;-73
2022/01/09 08:44:49;;;;;;;57.97;24.02;;;;;;;6.99;100.00;99623.06;5068855;28;20063;-73
2022/01/09 08:47:14;;;;;;;58.53;25.02;;;;;;;6.96;100.00;99618.66;5070508;28;20028;-73
2022/01/09 08:49:40;;;;;;;63.00;26.73;;;;;;;7.09;100.00;99627.72;5070512;28;20025;-72
2022/01/09 08:52:06;;;;;;;57.25;23.95;;;;;;;6.78;100.00;99582.06;5070574;28;20029;-73
2022/01/09 08:54:32;;;;;;;61.17;25.15;;;;;;;6.99;100.00;99622.19;5068777;28;20640;-73
2022/01/09 08:56:58;;;;;;;59.80;24.92;;;;;;;6.97;100.00;99611.84;5070500;28;20028;-73
2022/01/09 08:59:24;;;;;;;90.72;40.78;;;;;;;7.06;100.00;99622.44;5070130;28;20487;-73
2022/01/09 09:01:49;;;;;;;66.03;29.98;;;;;;;6.93;100.00;99621.13;5070013;28;20020;-72
2022/01/09 09:04:15;;;;;;;72.80;35.05;;;;;;;6.93;100.00;99607.44;5069986;28;20067;-73
2022/01/09 09:06:41;;;;;;;68.95;28.98;;;;;;;6.66;100.00;99569.66;5070291;28;20028;-73
2022/01/09 09:09:07;;;;;;;66.05;23.92;;;;;;;6.96;100.00;99605.84;5084234;28;20060;-75
2022/01/09 09:11:33;;;;;;;65.90;24.15;;;;;;;6.88;100.00;99602.13;5090958;28;20131;-75
2022/01/09 09:13:59;;;;;;;60.28;23.67;;;;;;;6.80;100.00;99595.81;5090298;28;20107;-76
2022/01/09 09:16:27;;;;;;;59.58;23.05;;;;;;;6.87;100.00;99592.69;5090389;28;20031;-75
2022/01/09 09:18:53;;;;;;;68.03;24.67;;;;;;;6.96;100.00;99600.69;5090246;28;20020;-76
2022/01/09 09:21:19;;;;;;;60.80;23.90;;;;;;;7.05;100.00;99594.19;5072387;28;20090;-76
2022/01/09 09:23:46;;;;;;;60.42;23.38;;;;;;;7.04;100.00;99593.31;5090384;28;20020;-75
2022/01/09 09:26:12;;;;;;;66.20;23.77;;;;;;;7.10;100.00;99585.84;5090464;28;20103;-75
2022/01/09 09:28:38;;;;;;;64.32;23.50;;;;;;;7.18;100.00;99585.22;5072481;28;20085;-75
2022/01/09 09:31:04;;;;;;;60.35;24.42;;;;;;;7.05;100.00;99583.91;5089643;28;20099;-75
2022/01/09 09:33:30;;;;;;;66.47;28.00;;;;;;;7.09;100.00;99584.09;5089810;28;20031;-75
2022/01/09 09:36:00;;;;;;;64.88;26.42;;;;;;;7.00;100.00;99576.03;5093318;28;20032;-75
2022/01/09 09:38:26;;;;;;;67.65;28.95;;;;;;;6.96;100.00;99566.47;5094014;28;20032;-75
2022/01/09 09:40:53;;;;;;;66.00;27.52;;;;;;;7.17;100.00;99573.22;5093914;28;20512;-75
2022/01/09 09:43:19;;;;;;;65.32;30.70;;;;;;;7.04;100.00;99534.28;5093923;28;20035;-75
2022/01/09 09:45:44;;;;;;;103.60;58.95;;;;;;;7.40;100.00;99582.63;5093595;28;20044;-75
2022/01/09 09:48:10;;;;;;;60.13;27.55;;;;;;;7.43;100.00;99575.00;5093862;28;20415;-75
2022/01/09 09:50:35;;;;;;;56.42;24.48;;;;;;;7.29;100.00;99584.81;5093628;28;20028;-75
2022/01/09 09:53:02;;;;;;;59.70;24.23;;;;;;;7.25;100.00;99588.09;5075506;28;20020;-75
2022/01/09 09:55:28;;;;;;;51.13;23.73;;;;;;;7.00;100.00;99581.16;5093491;28;20032;-75
2022/01/09 09:57:55;;;;;;;56.67;23.23;;;;;;;6.91;100.00;99560.31;5093526;28;20088;-75
2022/01/09 10:00:21;;;;;;;59.90;25.33;;;;;;;6.95;100.00;99560.50;5075648;28;20032;-75
2022/01/09 10:02:51;;;;;;;58.13;23.48;;;;;;;6.96;100.00;99575.03;5093603;28;20030;-75
2022/01/09 10:05:20;;;;;;;53.45;23.38;;;;;;;6.97;100.00;99561.41;5093506;28;20036;-75
2022/01/09 10:07:48;;;;;;;56.40;24.60;;;;;;;7.13;100.00;99560.28;5093284;28;20025;-75
2022/01/09 10:10:16;;;;;;;56.42;24.40;;;;;;;7.21;100.00;99554.53;5093453;28;20161;-75
2022/01/09 10:12:44;;;;;;;57.83;25.20;;;;;;;7.03;100.00;99512.00;5093337;28;20024;-75
2022/01/09 10:15:15;;;;;;;62.10;26.00;;;;;;;7.23;100.00;99540.94;5093353;28;20436;-76
2022/01/09 10:17:46;;;;;;;72.40;35.78;;;;;;;7.13;100.00;99502.94;5093125;28;20020;-75
2022/01/09 10:20:11;;;;;;;75.88;34.38;;;;;;;7.49;100.00;99530.72;5093118;28;20031;-75
2022/01/09 10:22:46;;;;;;;62.58;29.08;;;;;;;7.51;100.00;99523.03;5092938;28;20032;-75
2022/01/09 10:25:18;;;;;;;59.42;28.05;;;;;;;7.59;100.00;99519.91;5093159;28;20106;-75
2022/01/09 10:27:45;;;;;;;70.18;34.90;;;;;;;7.52;100.00;99499.13;5074883;28;20032;-74
2022/01/09 10:30:11;;;;;;;59.70;29.95;;;;;;;7.64;100.00;99514.94;5074826;28;20032;-74
2022/01/09 10:32:37;;;;;;;65.85;33.85;;;;;;;7.71;100.00;99516.91;5092784;28;20028;-74
2022/01/09 10:35:08;;;;;;;66.85;30.67;;;;;;;7.80;100.00;99515.44;5092930;28;20028;-75
2022/01/09 10:37:35;;;;;;;63.20;31.90;;;;;;;7.64;100.00;99484.13;5074601;28;20063;-74
2022/01/09 10:40:01;;;;;;;65.88;27.65;;;;;;;7.52;100.00;99464.03;5092994;28;20034;-74
2022/01/09 10:42:27;;;;;;;57.60;26.92;;;;;;;7.82;100.00;99504.38;5092631;28;20028;-74
2022/01/09 10:44:53;;;;;;;83.03;54.42;;;;;;;7.58;100.00;99463.38;5092752;28;20052;-74
2022/01/09 10:47:19;;;;;;;59.13;32.95;;;;;;;7.82;100.00;99499.25;5091498;28;20119;-74
2022/01/09 10:49:51;;;;;;;65.63;33.28;;;;;;;7.81;100.00;99500.06;5092538;28;20028;-74
2022/01/09 10:52:27;;;;;;;55.45;26.92;;;;;;;7.87;100.00;99500.25;5092716;28;20032;-73
2022/01/09 10:54:58;;;;;;;57.63;28.67;;;;;;;7.84;100.00;99486.44;5074564;28;20477;-74
2022/01/09 10:57:29;;;;;;;50.28;26.08;;;;;;;7.86;100.00;99490.81;5092559;28;20055;-74
2022/01/09 11:00:06;;;;;;;67.97;28.65;;;;;;;7.82;100.00;99470.97;5092378;28;20024;-74
2022/01/09 11:02:31;;;;;;;62.33;28.27;;;;;;;7.94;100.00;99491.91;5092544;28;20051;-74
2022/01/09 11:04:57;;;;;;;58.70;26.35;;;;;;;7.96;100.00;99493.69;5092490;28;20031;-74
2022/01/09 11:07:24;;;;;;;52.63;25.52;;;;;;;7.92;100.00;99483.31;5092448;28;20028;-75
2022/01/09 11:09:50;;;;;;;51.17;24.92;;;;;;;7.94;100.00;99496.19;5074201;28;20028;-74
2022/01/09 11:12:19;;;;;;;49.22;24.38;;;;;;;7.88;100.00;99491.72;5092237;28;20035;-74